Time;durP1;ratioP1;P1;durP2;ratioP2;P2;SDS_P1;SDS_P2;PMS_P1;PMS_P2;Temp;Humidity;BMP_temperature;BMP_pressure;BME280_temperature;BME280_humidity;BME280_pressure;Samples;Min_cycle;Max_cycle;Signal;HPM_P1;HPM_P2
2021/01/08 00:01:41;;;;;;;1.00;0.90;;;7.80;79.50;;;;;;5113993;28;20510;-55
2021/01/08 00:04:07;;;;;;;1.55;0.93;;;7.90;79.60;;;;;;5113818;28;20047;-59
2021/01/08 00:06:33;;;;;;;1.00;0.80;;;7.80;79.50;;;;;;5113949;28;20044;-47
2021/01/08 00:08:59;;;;;;;1.55;0.90;;;7.80;79.60;;;;;;5114460;28;20051;-58
2021/01/08 00:11:25;;;;;;;1.95;0.82;;;7.80;79.50;;;;;;5113836;28;20140;-56
2021/01/08 00:13:52;;;;;;;0.82;0.80;;;7.90;79.60;;;;;;5114036;28;20047;-58
2021/01/08 00:16:18;;;;;;;0.90;0.85;;;7.80;79.50;;;;;;5113825;28;20043;-49
2021/01/08 00:18:47;;;;;;;1.58;1.05;;;7.90;79.60;;;;;;5113075;28;20039;-57
2021/01/08 00:21:13;;;;;;;0.95;0.82;;;7.80;79.60;;;;;;5114171;28;20085;-58
2021/01/08 00:23:40;;;;;;;1.20;1.00;;;7.80;79.50;;;;;;5113178;28;20402;-59
2021/01/08 00:26:06;;;;;;;0.90;0.65;;;7.80;79.50;;;;;;5113667;28;20134;-58
2021/01/08 00:28:31;;;;;;;1.60;0.82;;;7.80;79.50;;;;;;5114004;28;20086;-57
2021/01/08 00:30:57;;;;;;;0.80;0.80;;;7.80;79.50;;;;;;5113583;28;20054;-59
2021/01/08 00:33:24;;;;;;;1.10;0.88;;;7.80;79.50;;;;;;5113754;28;20052;-59
2021/01/08 00:35:50;;;;;;;0.93;0.93;;;7.80;79.50;;;;;;5113036;28;20055;-56
2021/01/08 00:38:15;;;;;;;1.25;0.88;;;7.90;79.60;;;;;;5113439;28;20050;-60
2021/01/08 00:40:41;;;;;;;1.10;1.00;;;7.80;79.50;;;;;;5113590;28;20044;-59
2021/01/08 00:43:07;;;;;;;1.45;0.77;;;7.80;79.50;;;;;;5113531;28;20092;-59
2021/01/08 00:45:33;;;;;;;1.13;0.90;;;7.80;79.60;;;;;;5113332;28;20043;-59
2021/01/08 00:47:59;;;;;;;0.75;0.73;;;7.80;79.60;;;;;;5113544;28;20123;-54
2021/01/08 00:50:25;;;;;;;0.90;0.80;;;7.90;79.60;;;;;;5113790;28;20134;-59
2021/01/08 00:52:50;;;;;;;1.35;1.02;;;7.80;79.60;;;;;;5112686;28;20126;-58
2021/01/08 00:55:16;;;;;;;1.10;0.90;;;7.90;79.60;;;;;;5113532;28;20146;-55
2021/01/08 00:57:42;;;;;;;1.05;1.02;;;7.80;79.60;;;;;;5113036;28;20042;-59
2021/01/08 01:00:08;;;;;;;1.60;0.80;;;7.80;79.60;;;;;;5113182;28;20052;-52
2021/01/08 01:02:35;;;;;;;1.25;0.93;;;7.80;79.60;;;;;;5113506;28;20469;-59
2021/01/08 01:05:01;;;;;;;1.92;0.73;;;7.80;79.60;;;;;;5113516;28;20048;-60
2021/01/08 01:07:27;;;;;;;0.60;0.60;;;7.80;79.60;;;;;;5112958;28;20825;-58
2021/01/08 01:09:52;;;;;;;0.70;0.70;;;7.80;79.60;;;;;;5112516;28;20046;-54
2021/01/08 01:12:18;;;;;;;1.30;0.90;;;7.80;79.50;;;;;;5113175;28;20078;-59
2021/01/08 01:14:44;;;;;;;0.95;0.80;;;7.80;79.60;;;;;;5112919;28;20048;-59
2021/01/08 01:17:11;;;;;;;0.73;0.73;;;7.80;79.60;;;;;;5113174;28;20047;-59
2021/01/08 01:19:37;;;;;;;0.85;0.75;;;7.80;79.60;;;;;;5112912;28;20415;-60
2021/01/08 01:22:03;;;;;;;0.70;0.60;;;7.80;79.60;;;;;;5113039;28;20044;-57
2021/01/08 01:24:28;;;;;;;0.85;0.80;;;7.80;79.60;;;;;;5113090;28;20101;-59
2021/01/08 01:26:58;;;;;;;1.83;0.80;;;7.80;79.60;;;;;;5112914;28;20069;-53
2021/01/08 01:29:24;;;;;;;0.50;0.50;;;7.80;79.60;;;;;;5113607;28;20100;-59
2021/01/08 01:31:50;;;;;;;1.30;1.10;;;7.80;79.60;;;;;;5117194;28;20126;-58
2021/01/08 01:34:16;;;;;;;0.82;0.80;;;7.80;79.60;;;;;;5117003;28;20060;-53
2021/01/08 01:36:42;;;;;;;1.63;0.90;;;7.80;79.60;;;;;;5117274;28;20061;-59
2021/01/08 01:39:08;;;;;;;1.00;0.90;;;7.80;79.60;;;;;;5116627;28;20081;-47
2021/01/08 01:41:33;;;;;;;0.98;0.75;;;7.80;79.60;;;;;;5116439;28;20054;-59
2021/01/08 01:43:59;;;;;;;1.85;1.00;;;7.80;79.60;;;;;;5117220;28;20043;-53
2021/01/08 01:46:26;;;;;;;0.70;0.70;;;7.80;79.60;;;;;;5116686;28;20047;-60
2021/01/08 01:48:52;;;;;;;0.88;0.88;;;7.80;79.60;;;;;;5116853;27;20046;-60
2021/01/08 01:51:20;;;;;;;1.80;0.90;;;7.80;79.60;;;;;;5116611;28;20043;-59
2021/01/08 01:53:48;;;;;;;0.70;0.70;;;7.80;79.60;;;;;;5116554;28;20134;-58
2021/01/08 01:56:14;;;;;;;1.02;0.80;;;7.80;79.60;;;;;;5116468;28;20044;-59
2021/01/08 01:58:40;;;;;;;0.68;0.68;;;7.80;79.60;;;;;;5116849;28;20097;-58
2021/01/08 02:01:06;;;;;;;0.95;0.80;;;7.80;79.60;;;;;;5116426;28;20039;-53
2021/01/08 02:03:54;;;;;;;0.80;0.73;;;7.80;79.60;;;;;;5116517;28;20047;-57
2021/01/08 02:06:25;;;;;;;0.85;0.82;;;7.80;79.50;;;;;;5116799;28;20071;-60
2021/01/08 02:08:58;;;;;;;1.67;0.80;;;7.80;79.60;;;;;;5116550;27;20040;-58
2021/01/08 02:11:27;;;;;;;1.10;1.00;;;7.80;79.60;;;;;;5116085;28;20039;-59
2021/01/08 02:14:02;;;;;;;1.33;1.10;;;7.80;79.60;;;;;;5116480;28;20058;-58
2021/01/08 02:16:29;;;;;;;1.35;0.93;;;7.80;79.60;;;;;;5116196;28;20122;-56
2021/01/08 02:18:57;;;;;;;1.63;1.00;;;7.80;79.60;;;;;;5116490;28;20035;-58
2021/01/08 02:21:47;;;;;;;1.40;1.30;;;7.80;79.60;;;;;;5116226;28;20051;-55
2021/01/08 02:24:19;;;;;;;1.00;0.82;;;7.80;79.60;;;;;;5095907;28;20118;-60
2021/01/08 02:26:46;;;;;;;1.10;0.82;;;7.80;79.60;;;;;;5098284;28;20063;-60
2021/01/08 02:29:12;;;;;;;2.63;1.10;;;7.80;79.60;;;;;;5116263;28;20161;-59
2021/01/08 02:31:39;;;;;;;1.08;0.88;;;7.80;79.60;;;;;;5116227;28;20036;-58
2021/01/08 02:34:05;;;;;;;1.15;0.82;;;7.80;79.60;;;;;;5115518;28;20471;-58
2021/01/08 02:36:37;;;;;;;1.75;1.10;;;7.80;79.60;;;;;;5115550;28;20100;-60
2021/01/08 02:39:03;;;;;;;1.00;0.90;;;7.80;79.60;;;;;;5114319;28;20100;-57
2021/01/08 02:41:30;;;;;;;1.17;0.82;;;7.80;79.60;;;;;;5114140;28;20127;-58
2021/01/08 02:43:57;;;;;;;0.90;0.88;;;7.80;79.60;;;;;;5115033;28;20055;-59
2021/01/08 02:46:23;;;;;;;1.27;1.10;;;7.80;79.60;;;;;;5114950;28;20051;-58
2021/01/08 02:48:49;;;;;;;0.93;0.82;;;7.80;79.60;;;;;;5113146;28;20399;-59
2021/01/08 02:51:14;;;;;;;1.08;0.80;;;7.80;79.60;;;;;;5114413;28;20051;-59
2021/01/08 02:53:42;;;;;;;0.82;0.70;;;7.80;79.60;;;;;;5113693;28;20047;-58
2021/01/08 02:56:19;;;;;;;1.10;0.75;;;7.80;79.60;;;;;;5114410;28;20524;-53
2021/01/08 02:58:46;;;;;;;1.33;0.80;;;7.80;79.60;;;;;;5113920;28;20047;-59
2021/01/08 03:01:13;;;;;;;1.00;0.77;;;7.80;79.60;;;;;;5114261;28;20430;-48
2021/01/08 03:03:39;;;;;;;1.67;0.80;;;7.80;79.60;;;;;;5114546;28;20104;-57
2021/01/08 03:06:06;;;;;;;1.60;0.70;;;7.80;79.60;;;;;;5113521;28;20120;-57
2021/01/08 03:08:32;;;;;;;1.20;0.88;;;7.80;79.60;;;;;;5114506;28;20039;-52
2021/01/08 03:10:59;;;;;;;0.98;0.85;;;7.80;79.60;;;;;;5114066;28;20048;-55
2021/01/08 03:13:28;;;;;;;0.85;0.82;;;7.80;79.60;;;;;;5113956;28;20067;-53
2021/01/08 03:15:53;;;;;;;0.95;0.80;;;7.80;79.60;;;;;;5113905;28;20054;-53
2021/01/08 03:18:19;;;;;;;0.65;0.65;;;7.80;79.60;;;;;;5114172;28;20118;-48
2021/01/08 03:20:45;;;;;;;1.02;0.80;;;7.80;79.60;;;;;;5113875;28;20086;-54
2021/01/08 03:23:11;;;;;;;0.70;0.70;;;7.80;79.60;;;;;;5113930;28;20734;-56
2021/01/08 03:25:36;;;;;;;0.70;0.70;;;7.80;79.60;;;;;;5114049;28;20411;-57
2021/01/08 03:28:02;;;;;;;0.88;0.85;;;7.80;79.60;;;;;;5113890;28;20109;-44
2021/01/08 03:30:28;;;;;;;0.70;0.70;;;7.80;79.60;;;;;;5113928;28;20108;-57
2021/01/08 03:32:54;;;;;;;0.52;0.52;;;7.80;79.60;;;;;;5113967;28;20044;-49
2021/01/08 03:35:19;;;;;;;0.85;0.73;;;7.80;79.60;;;;;;5113738;28;20122;-57
2021/01/08 03:37:45;;;;;;;0.95;0.85;;;7.80;79.60;;;;;;5093760;28;568823;-58
2021/01/08 03:40:11;;;;;;;0.70;0.70;;;7.80;79.60;;;;;;5114688;28;20122;-57
2021/01/08 03:42:37;;;;;;;0.70;0.70;;;7.80;79.60;;;;;;5114457;28;20048;-58
2021/01/08 03:45:04;;;;;;;1.13;0.70;;;7.80;79.60;;;;;;5114541;28;20088;-51
2021/01/08 03:47:30;;;;;;;1.02;0.70;;;7.80;79.60;;;;;;5114516;27;20138;-58
2021/01/08 03:49:55;;;;;;;0.77;0.77;;;7.80;79.60;;;;;;5114590;28;20481;-56
2021/01/08 03:52:21;;;;;;;0.65;0.60;;;7.80;79.60;;;;;;5113689;28;20044;-58
2021/01/08 03:54:47;;;;;;;1.17;0.98;;;7.80;79.60;;;;;;5113606;28;20039;-52
2021/01/08 03:57:13;;;;;;;0.60;0.60;;;7.80;79.60;;;;;;5114028;28;20050;-58
2021/01/08 03:59:39;;;;;;;0.70;0.70;;;7.80;79.60;;;;;;5114289;28;20043;-58
2021/01/08 04:02:05;;;;;;;0.65;0.65;;;7.80;79.60;;;;;;5114309;28;20062;-59
2021/01/08 04:04:30;;;;;;;0.85;0.70;;;7.80;79.60;;;;;;5114191;28;20043;-58
2021/01/08 04:06:56;;;;;;;1.58;1.02;;;7.80;79.60;;;;;;5114154;28;20047;-56
2021/01/08 04:09:22;;;;;;;1.02;0.70;;;7.80;79.60;;;;;;5113689;28;20044;-58
2021/01/08 04:11:48;;;;;;;0.82;0.70;;;7.80;79.60;;;;;;5113762;28;20059;-57
2021/01/08 04:14:14;;;;;;;0.95;0.73;;;7.80;79.60;;;;;;5113788;28;20043;-58
2021/01/08 04:16:41;;;;;;;0.80;0.80;;;7.80;79.60;;;;;;5112916;28;20464;-54
2021/01/08 04:19:11;;;;;;;0.65;0.60;;;7.80;79.60;;;;;;5114002;28;20065;-58
2021/01/08 04:21:37;;;;;;;0.80;0.80;;;7.90;79.60;;;;;;5114159;28;20052;-54
2021/01/08 04:24:03;;;;;;;0.77;0.65;;;7.80;79.60;;;;;;5113471;28;20050;-59
2021/01/08 04:26:29;;;;;;;0.90;0.90;;;7.80;80.30;;;;;;5114002;28;20071;-59
2021/01/08 04:28:55;;;;;;;0.55;0.55;;;7.80;79.60;;;;;;5113083;28;20063;-59
2021/01/08 04:31:21;;;;;;;1.02;0.90;;;7.80;79.60;;;;;;5113598;28;20040;-56
2021/01/08 04:33:47;;;;;;;0.85;0.73;;;7.80;79.60;;;;;;5113651;28;20052;-54
2021/01/08 04:36:13;;;;;;;0.98;0.80;;;7.80;79.60;;;;;;5113560;28;20040;-56
2021/01/08 04:38:39;;;;;;;1.00;0.90;;;7.80;79.60;;;;;;5113350;28;20510;-57
2021/01/08 04:41:06;;;;;;;0.85;0.60;;;7.80;79.60;;;;;;5113408;28;20039;-58
2021/01/08 04:43:33;;;;;;;0.65;0.65;;;7.80;79.60;;;;;;5113461;28;20053;-58
2021/01/08 04:46:22;;;;;;;0.60;0.60;;;7.80;79.60;;;;;;5113265;28;20067;-55
2021/01/08 04:48:52;;;;;;;0.85;0.60;;;7.80;79.60;;;;;;5113714;28;20043;-58
2021/01/08 04:51:19;;;;;;;1.63;0.98;;;7.80;79.60;;;;;;5112953;28;20483;-57
2021/01/08 04:53:45;;;;;;;1.00;0.80;;;7.80;79.60;;;;;;5113404;28;20594;-58
2021/01/08 04:56:14;;;;;;;0.80;0.80;;;7.80;79.60;;;;;;5113332;28;20061;-56
2021/01/08 04:58:41;;;;;;;0.68;0.50;;;7.80;80.20;;;;;;5113126;28;20486;-58
2021/01/08 05:01:07;;;;;;;0.70;0.65;;;7.80;79.60;;;;;;5112849;28;20110;-46
2021/01/08 05:03:33;;;;;;;0.60;0.60;;;7.80;79.60;;;;;;5113183;28;20146;-47
2021/01/08 05:05:59;;;;;;;0.88;0.70;;;7.80;79.60;;;;;;5112805;28;20095;-53
2021/01/08 05:08:25;;;;;;;0.70;0.70;;;7.80;79.60;;;;;;5113083;28;20100;-56
2021/01/08 05:10:51;;;;;;;0.68;0.65;;;7.80;79.60;;;;;;5112917;28;20050;-47
2021/01/08 05:13:17;;;;;;;0.70;0.70;;;7.80;79.60;;;;;;5113106;28;20055;-59
2021/01/08 05:15:53;;;;;;;0.98;0.80;;;7.80;79.60;;;;;;5112878;28;20066;-58
2021/01/08 05:18:20;;;;;;;0.60;0.60;;;7.80;79.60;;;;;;5112963;28;20445;-59
2021/01/08 05:20:51;;;;;;;0.63;0.63;;;7.80;79.60;;;;;;5112895;28;20052;-56
2021/01/08 05:23:17;;;;;;;0.73;0.70;;;7.80;79.60;;;;;;5112878;28;20048;-48
2021/01/08 05:25:49;;;;;;;1.05;0.93;;;7.80;79.60;;;;;;5113447;28;20056;-54
2021/01/08 05:28:16;;;;;;;0.60;0.60;;;7.80;79.60;;;;;;5113118;28;20407;-58
2021/01/08 05:30:42;;;;;;;1.00;0.80;;;7.80;79.60;;;;;;5113196;28;20534;-53
2021/01/08 05:33:13;;;;;;;0.60;0.60;;;7.80;79.60;;;;;;5112230;28;20036;-59
2021/01/08 05:35:40;;;;;;;0.60;0.60;;;7.80;79.60;;;;;;5113167;28;20494;-57
2021/01/08 05:38:06;;;;;;;0.82;0.77;;;7.80;79.60;;;;;;5112707;28;20075;-59
2021/01/08 05:40:33;;;;;;;0.68;0.65;;;7.80;79.60;;;;;;5113163;28;20058;-59
2021/01/08 05:43:00;;;;;;;0.90;0.70;;;7.80;79.60;;;;;;5112288;28;20046;-58
2021/01/08 05:45:28;;;;;;;0.63;0.63;;;7.80;79.60;;;;;;5113031;28;20509;-56
2021/01/08 05:47:56;;;;;;;0.90;0.65;;;7.80;79.60;;;;;;5112129;28;20048;-59
2021/01/08 05:50:24;;;;;;;1.10;0.75;;;7.80;79.60;;;;;;5112708;28;20079;-59
2021/01/08 05:53:03;;;;;;;1.27;0.80;;;7.80;79.60;;;;;;5112616;28;20044;-57
2021/01/08 05:55:33;;;;;;;0.80;0.70;;;7.80;79.60;;;;;;5112627;28;20077;-58
2021/01/08 05:57:59;;;;;;;0.45;0.45;;;7.80;79.60;;;;;;5112931;28;20039;-58
2021/01/08 06:00:25;;;;;;;0.80;0.70;;;7.80;79.60;;;;;;5112296;28;20483;-56
2021/01/08 06:02:52;;;;;;;0.60;0.60;;;7.80;79.60;;;;;;5112156;28;20096;-58
2021/01/08 06:05:20;;;;;;;0.55;0.55;;;7.80;79.60;;;;;;5112611;28;20039;-57
2021/01/08 06:07:50;;;;;;;0.80;0.80;;;7.80;79.60;;;;;;5112760;28;20048;-58
2021/01/08 06:10:19;;;;;;;0.80;0.80;;;7.80;79.60;;;;;;5112271;28;20126;-57
2021/01/08 06:12:47;;;;;;;0.60;0.60;;;7.80;79.60;;;;;;5112316;28;20511;-58
2021/01/08 06:15:16;;;;;;;0.60;0.60;;;7.80;79.60;;;;;;5113150;28;20471;-58
2021/01/08 06:17:47;;;;;;;0.57;0.57;;;7.80;79.60;;;;;;5116261;28;20054;-58
2021/01/08 06:20:13;;;;;;;0.73;0.65;;;7.80;79.60;;;;;;5095837;28;20051;-59
2021/01/08 06:22:40;;;;;;;0.73;0.50;;;7.80;79.60;;;;;;5100146;28;20484;-57
2021/01/08 06:25:30;;;;;;;1.27;0.60;;;7.80;79.70;;;;;;5116206;28;20051;-57
2021/01/08 06:28:02;;;;;;;0.60;0.60;;;7.80;79.60;;;;;;5115874;28;20040;-55
2021/01/08 06:30:28;;;;;;;0.68;0.68;;;7.80;80.20;;;;;;5116131;28;20048;-58
2021/01/08 06:33:03;;;;;;;0.63;0.63;;;7.80;79.60;;;;;;5116254;28;20039;-59
2021/01/08 06:35:32;;;;;;;1.08;1.08;;;7.80;79.60;;;;;;5098739;28;20040;-58
2021/01/08 06:37:59;;;;;;;0.60;0.60;;;7.80;79.60;;;;;;5115983;28;20052;-58
2021/01/08 06:40:41;;;;;;;0.57;0.57;;;7.80;79.60;;;;;;5115677;28;20043;-55
2021/01/08 06:43:18;;;;;;;0.80;0.70;;;7.80;79.60;;;;;;5115726;28;20052;-58
2021/01/08 06:45:54;;;;;;;1.25;0.90;;;7.80;79.60;;;;;;5115658;28;20043;-49
2021/01/08 06:48:42;;;;;;;0.85;0.70;;;7.80;79.60;;;;;;5115259;28;20044;-56
2021/01/08 06:51:11;;;;;;;1.15;0.90;;;7.80;79.60;;;;;;5115780;28;20066;-57
2021/01/08 06:53:43;;;;;;;0.70;0.70;;;7.80;79.70;;;;;;5115773;28;20051;-51
2021/01/08 06:56:17;;;;;;;0.47;0.47;;;7.80;79.60;;;;;;5115454;28;20044;-44
2021/01/08 06:58:49;;;;;;;0.70;0.70;;;7.80;79.60;;;;;;5115242;28;20062;-57
2021/01/08 07:01:15;;;;;;;0.70;0.70;;;7.80;79.60;;;;;;5115690;28;20088;-45
2021/01/08 07:03:41;;;;;;;0.68;0.68;;;7.80;79.60;;;;;;5114888;28;20058;-51
2021/01/08 07:06:07;;;;;;;1.33;0.75;;;7.80;79.60;;;;;;5114975;28;20410;-60
2021/01/08 07:08:33;;;;;;;0.88;0.82;;;7.80;79.60;;;;;;5115333;28;20051;-52
2021/01/08 07:10:59;;;;;;;0.60;0.60;;;7.70;79.60;;;;;;5115148;28;20036;-47
2021/01/08 07:13:28;;;;;;;0.77;0.77;;;7.80;79.60;;;;;;5115302;28;20121;-43
2021/01/08 07:15:54;;;;;;;0.70;0.70;;;7.80;79.70;;;;;;5114817;28;20047;-55
2021/01/08 07:18:25;;;;;;;0.80;0.63;;;7.80;79.60;;;;;;5114961;28;20103;-47
2021/01/08 07:20:56;;;;;;;0.60;0.60;;;7.80;79.60;;;;;;5115143;28;20043;-46
2021/01/08 07:23:26;;;;;;;0.80;0.60;;;7.80;79.60;;;;;;5115293;28;20071;-52
2021/01/08 07:25:57;;;;;;;0.82;0.70;;;7.80;79.60;;;;;;5115369;28;20054;-50
2021/01/08 07:28:24;;;;;;;1.15;1.02;;;7.80;79.60;;;;;;5113721;28;20044;-44
2021/01/08 07:31:10;;;;;;;0.75;0.75;;;7.80;79.60;;;;;;5114822;28;20043;-57
2021/01/08 07:33:58;;;;;;;0.80;0.80;;;7.80;79.60;;;;;;5114809;28;20159;-54
2021/01/08 07:36:26;;;;;;;1.33;0.60;;;7.80;79.60;;;;;;5114683;28;20196;-51
2021/01/08 07:39:36;;;;;;;0.70;0.70;;;7.80;79.60;;;;;;5113459;28;20499;-54
2021/01/08 07:42:32;;;;;;;0.77;0.70;;;7.80;79.60;;;;;;5114384;28;20495;-54
2021/01/08 07:44:58;;;;;;;0.80;0.75;;;7.80;79.60;;;;;;5113978;28;20048;-44
2021/01/08 07:47:29;;;;;;;0.60;0.60;;;7.70;79.50;;;;;;5114129;28;20043;-47
2021/01/08 07:50:14;;;;;;;0.90;0.90;;;7.80;79.60;;;;;;5113487;28;20055;-49
2021/01/08 07:52:42;;;;;;;0.70;0.70;;;7.80;79.60;;;;;;5113645;28;20047;-43
2021/01/08 07:55:10;;;;;;;0.73;0.73;;;7.80;79.60;;;;;;5114516;28;20138;-49
2021/01/08 07:58:02;;;;;;;1.30;0.80;;;7.80;79.60;;;;;;5114713;28;20040;-45
2021/01/08 08:00:51;;;;;;;0.98;0.88;;;7.80;79.60;;;;;;5114424;28;20108;-44
2021/01/08 08:03:38;;;;;;;1.38;0.80;;;7.80;79.60;;;;;;5114481;28;20556;-50
2021/01/08 08:06:04;;;;;;;0.70;0.70;;;7.80;79.60;;;;;;5114132;28;20043;-46
2021/01/08 08:08:31;;;;;;;0.73;0.68;;;7.70;79.50;;;;;;5114635;28;20549;-45
2021/01/08 08:11:16;;;;;;;1.05;0.90;;;7.70;79.50;;;;;;5114235;28;20431;-45
2021/01/08 08:13:46;;;;;;;0.73;0.63;;;7.80;79.60;;;;;;5113252;28;20404;-45
2021/01/08 08:16:12;;;;;;;0.55;0.55;;;7.70;79.50;;;;;;5114344;28;20050;-42
2021/01/08 08:19:05;;;;;;;0.60;0.60;;;7.80;79.60;;;;;;5114183;28;20052;-43
2021/01/08 08:21:31;;;;;;;0.77;0.60;;;7.80;79.60;;;;;;5111281;28;20068;-44
2021/01/08 08:23:58;;;;;;;2.15;0.90;;;7.80;79.60;;;;;;5113564;28;20038;-45
2021/01/08 08:26:25;;;;;;;0.85;0.65;;;7.80;79.60;;;;;;5114192;28;20113;-42
2021/01/08 08:29:03;;;;;;;1.00;0.70;;;7.80;79.60;;;;;;5113785;28;20067;-43
2021/01/08 08:31:30;;;;;;;1.15;0.93;;;7.80;79.60;;;;;;5111414;28;20065;-42
2021/01/08 08:34:00;;;;;;;1.10;1.00;;;7.80;79.60;;;;;;5113625;28;20511;-43
2021/01/08 08:36:28;;;;;;;0.93;0.90;;;7.80;79.60;;;;;;5113865;28;20469;-43
2021/01/08 08:39:09;;;;;;;1.33;0.88;;;7.80;79.60;;;;;;5113538;28;20051;-45
2021/01/08 08:41:40;;;;;;;1.88;0.73;;;7.80;79.60;;;;;;5109535;28;20130;-42
2021/01/08 08:44:10;;;;;;;0.77;0.77;;;7.70;79.50;;;;;;5112408;28;20048;-42
2021/01/08 08:46:50;;;;;;;0.73;0.73;;;7.80;79.60;;;;;;5112954;28;20582;-50
2021/01/08 08:49:25;;;;;;;1.35;1.10;;;7.80;79.60;;;;;;5112754;28;20093;-56
2021/01/08 08:51:53;;;;;;;1.40;1.17;;;7.70;79.50;;;;;;5113036;28;20464;-42
2021/01/08 08:54:19;;;;;;;0.82;0.80;;;7.70;79.60;;;;;;5112459;28;20055;-46
2021/01/08 08:56:56;;;;;;;1.20;0.80;;;7.80;79.60;;;;;;5112811;28;20492;-45
2021/01/08 08:59:38;;;;;;;0.88;0.80;;;7.80;79.60;;;;;;5113840;28;20080;-50
2021/01/08 09:02:05;;;;;;;1.25;0.80;;;7.80;79.60;;;;;;5113719;28;20039;-45
2021/01/08 09:04:31;;;;;;;1.25;0.90;;;7.70;79.50;;;;;;5108647;28;20047;-44
2021/01/08 09:07:01;;;;;;;1.02;0.90;;;7.80;79.60;;;;;;5097554;28;20054;-49
2021/01/08 09:09:31;;;;;;;0.82;0.80;;;7.80;79.60;;;;;;5107417;28;20059;-42
2021/01/08 09:12:18;;;;;;;1.27;1.10;;;7.70;79.50;;;;;;5107920;28;20051;-48
2021/01/08 09:14:47;;;;;;;0.77;0.68;;;7.80;79.60;;;;;;5107217;28;20137;-48
2021/01/08 09:17:18;;;;;;;1.60;1.05;;;7.80;79.60;;;;;;5107896;28;20071;-45
2021/01/08 09:19:51;;;;;;;0.90;0.90;;;7.70;79.50;;;;;;5107802;28;20392;-46
2021/01/08 09:22:17;;;;;;;1.20;1.00;;;7.80;79.60;;;;;;5111181;28;20047;-47
2021/01/08 09:24:47;;;;;;;1.05;0.90;;;7.70;79.50;;;;;;5110874;28;20388;-47
2021/01/08 09:27:13;;;;;;;1.23;0.95;;;7.80;79.60;;;;;;5111781;28;20073;-52
2021/01/08 09:29:39;;;;;;;0.70;0.70;;;7.70;79.60;;;;;;5111577;28;20108;-48
2021/01/08 09:32:06;;;;;;;0.90;0.80;;;7.80;79.60;;;;;;5111898;28;20121;-43
2021/01/08 09:34:33;;;;;;;0.75;0.73;;;7.80;79.60;;;;;;5110806;28;20050;-52
2021/01/08 09:37:11;;;;;;;1.15;1.02;;;7.80;79.60;;;;;;5112968;28;20552;-53
2021/01/08 09:39:39;;;;;;;0.75;0.70;;;7.80;79.60;;;;;;5112994;28;20054;-54
2021/01/08 09:42:05;;;;;;;1.10;0.82;;;7.70;79.50;;;;;;5113271;28;20054;-50
2021/01/08 09:44:35;;;;;;;5.18;2.03;;;7.80;79.60;;;;;;5112854;28;20052;-50
2021/01/08 09:47:09;;;;;;;1.42;1.33;;;7.70;80.00;;;;;;5113139;28;20097;-53
2021/01/08 09:49:47;;;;;;;1.60;1.30;;;7.70;79.40;;;;;;5112903;28;20051;-52
2021/01/08 09:52:13;;;;;;;2.33;1.40;;;7.70;79.40;;;;;;5117299;28;20070;-51
2021/01/08 09:54:56;;;;;;;1.23;1.13;;;7.70;79.40;;;;;;5116343;28;20051;-53
2021/01/08 09:57:30;;;;;;;1.70;1.40;;;7.70;79.40;;;;;;5117136;28;20039;-46
2021/01/08 10:00:00;;;;;;;1.58;1.20;;;7.70;79.50;;;;;;5116964;28;20040;-54
2021/01/08 10:02:44;;;;;;;1.95;1.40;;;7.70;79.50;;;;;;5117210;28;20048;-49
2021/01/08 10:05:19;;;;;;;1.30;1.20;;;7.70;79.40;;;;;;5116738;28;20055;-56
2021/01/08 10:07:46;;;;;;;1.07;1.07;;;7.70;80.10;;;;;;5116737;28;20047;-53
2021/01/08 10:10:13;;;;;;;1.60;1.40;;;7.70;79.40;;;;;;5116450;28;20495;-48
2021/01/08 10:12:49;;;;;;;1.92;1.30;;;7.70;79.50;;;;;;5116605;28;20083;-45
2021/01/08 10:15:17;;;;;;;3.05;1.20;;;7.70;79.50;;;;;;5116440;28;20116;-51
2021/01/08 10:17:48;;;;;;;3.13;1.60;;;7.70;79.50;;;;;;5110876;28;20036;-48
2021/01/08 10:20:15;;;;;;;1.75;1.65;;;7.70;79.40;;;;;;5104755;28;20044;-61
2021/01/08 10:22:50;;;;;;;2.75;1.38;;;7.70;79.30;;;;;;5095866;28;20055;-53
2021/01/08 10:25:26;;;;;;;1.67;1.45;;;7.60;80.00;;;;;;5096684;28;20080;-41
2021/01/08 10:27:53;;;;;;;1.73;1.60;;;7.60;79.40;;;;;;5102159;28;20510;-40
2021/01/08 10:30:19;;;;;;;1.67;1.40;;;7.60;79.40;;;;;;5105654;28;20051;-45
2021/01/08 10:32:46;;;;;;;3.45;1.50;;;7.60;79.40;;;;;;5115941;28;20074;-50
2021/01/08 10:35:13;;;;;;;2.85;1.65;;;7.60;79.50;;;;;;5116104;28;20043;-42
2021/01/08 10:37:39;;;;;;;1.55;1.10;;;7.60;79.40;;;;;;5110953;28;20122;-51
2021/01/08 10:40:05;;;;;;;2.90;1.60;;;7.60;79.50;;;;;;5101132;28;20181;-44
2021/01/08 10:42:31;;;;;;;1.88;1.52;;;7.70;79.60;;;;;;5104707;28;20129;-47
2021/01/08 10:44:57;;;;;;;2.33;1.60;;;7.60;79.50;;;;;;5109316;28;20087;-41
2021/01/08 10:47:22;;;;;;;2.45;1.50;;;7.70;79.50;;;;;;5110407;28;20043;-43
2021/01/08 10:49:48;;;;;;;4.00;1.70;;;7.70;79.50;;;;;;5109888;28;20055;-45
2021/01/08 10:52:14;;;;;;;3.67;1.80;;;7.70;79.60;;;;;;5110224;28;20044;-39
2021/01/08 10:54:40;;;;;;;2.03;1.40;;;7.70;79.60;;;;;;5108806;28;20112;-39
2021/01/08 10:57:06;;;;;;;1.83;1.25;;;7.70;79.60;;;;;;5109172;28;20484;-39
2021/01/08 10:59:32;;;;;;;2.35;1.50;;;7.60;79.60;;;;;;5110525;28;20166;-40
2021/01/08 11:01:57;;;;;;;1.70;1.20;;;7.70;79.60;;;;;;5109722;28;20040;-40
2021/01/08 11:04:23;;;;;;;1.80;1.42;;;7.60;79.60;;;;;;5110067;28;20491;-41
2021/01/08 11:06:58;;;;;;;2.22;1.60;;;7.70;79.60;;;;;;5109467;28;20072;-40
2021/01/08 11:09:24;;;;;;;1.70;1.60;;;7.70;79.60;;;;;;5110125;28;20047;-56
2021/01/08 11:11:49;;;;;;;2.97;1.23;;;7.70;79.60;;;;;;5109456;28;20047;-40
2021/01/08 11:14:16;;;;;;;1.38;1.20;;;7.70;79.70;;;;;;5109608;28;20054;-41
2021/01/08 11:16:42;;;;;;;2.60;1.40;;;7.70;80.30;;;;;;5109948;28;20122;-46
2021/01/08 11:19:07;;;;;;;1.58;1.40;;;7.70;79.70;;;;;;5108775;28;20142;-41
2021/01/08 11:21:33;;;;;;;2.08;1.38;;;7.70;79.70;;;;;;5113939;28;20047;-43
2021/01/08 11:23:59;;;;;;;1.33;1.23;;;7.70;79.70;;;;;;5113251;28;20039;-41
2021/01/08 11:26:29;;;;;;;1.90;1.40;;;7.70;79.70;;;;;;5106710;28;20069;-41
2021/01/08 11:28:55;;;;;;;1.30;1.20;;;7.70;79.70;;;;;;5106518;28;20127;-42
2021/01/08 11:31:21;;;;;;;2.03;1.33;;;7.70;79.70;;;;;;5113119;27;20525;-43
2021/01/08 11:33:47;;;;;;;1.40;1.27;;;7.70;80.40;;;;;;5113365;28;20180;-45
2021/01/08 11:36:17;;;;;;;1.75;1.45;;;7.70;80.40;;;;;;5112893;28;20070;-43
2021/01/08 11:38:43;;;;;;;1.75;1.30;;;7.70;79.70;;;;;;5114893;28;20075;-50
2021/01/08 11:41:10;;;;;;;1.98;1.70;;;7.80;79.80;;;;;;5113760;28;20082;-42
2021/01/08 11:43:35;;;;;;;1.25;1.10;;;7.80;79.80;;;;;;5107544;28;20043;-46
2021/01/08 11:46:02;;;;;;;1.55;1.20;;;7.60;79.60;;;;;;5107484;28;20039;-41
2021/01/08 11:48:28;;;;;;;1.80;1.30;;;7.80;79.80;;;;;;5113743;28;20055;-42
2021/01/08 11:50:53;;;;;;;2.78;1.60;;;7.80;79.80;;;;;;5114338;28;20051;-44
2021/01/08 11:53:19;;;;;;;1.30;1.20;;;7.70;79.70;;;;;;5113701;28;20502;-42
2021/01/08 11:55:45;;;;;;;1.92;1.40;;;7.80;79.80;;;;;;5112446;28;20613;-45
2021/01/08 11:58:10;;;;;;;1.58;1.20;;;7.80;79.80;;;;;;5112311;28;20039;-42
2021/01/08 12:00:36;;;;;;;1.08;0.90;;;7.70;79.70;;;;;;5113717;28;20059;-41
2021/01/08 12:03:02;;;;;;;1.70;1.25;;;7.80;79.80;;;;;;5113322;27;20483;-42
2021/01/08 12:05:27;;;;;;;1.33;1.15;;;7.80;79.80;;;;;;5113925;28;20524;-45
2021/01/08 12:07:53;;;;;;;1.92;1.42;;;7.80;79.80;;;;;;5113769;28;20050;-46
2021/01/08 12:10:19;;;;;;;1.45;1.08;;;7.80;79.80;;;;;;5113557;28;20130;-38
2021/01/08 12:12:47;;;;;;;1.27;1.17;;;7.80;79.80;;;;;;5112640;28;20044;-42
2021/01/08 12:15:15;;;;;;;1.60;1.27;;;7.80;79.80;;;;;;5113537;28;20050;-47
2021/01/08 12:17:41;;;;;;;1.55;1.30;;;7.80;79.80;;;;;;5113700;28;20040;-42
2021/01/08 12:20:07;;;;;;;1.60;1.33;;;7.80;79.80;;;;;;5113294;28;20116;-45
2021/01/08 12:22:33;;;;;;;1.38;1.20;;;7.80;79.80;;;;;;5113596;28;20048;-44
2021/01/08 12:24:59;;;;;;;1.75;1.40;;;7.80;79.80;;;;;;5111390;28;20411;-43
2021/01/08 12:27:26;;;;;;;1.83;1.30;;;7.80;79.80;;;;;;5111718;28;20122;-53
2021/01/08 12:29:51;;;;;;;1.63;1.30;;;7.80;79.80;;;;;;5112544;28;20130;-47
2021/01/08 12:32:17;;;;;;;1.67;1.20;;;7.80;79.70;;;;;;5112738;28;20551;-52
2021/01/08 12:34:43;;;;;;;1.98;1.63;;;7.80;79.80;;;;;;5113354;28;20388;-57
2021/01/08 12:37:09;;;;;;;1.35;1.20;;;7.80;79.70;;;;;;5112824;28;20419;-60
2021/01/08 12:39:34;;;;;;;1.77;1.45;;;7.80;79.70;;;;;;5113305;28;20138;-57
2021/01/08 12:42:02;;;;;;;1.45;1.13;;;7.80;79.70;;;;;;5113123;28;20488;-58
2021/01/08 12:44:28;;;;;;;1.45;1.20;;;7.80;79.70;;;;;;5112907;28;20040;-46
2021/01/08 12:46:57;;;;;;;1.20;0.98;;;7.80;79.80;;;;;;5114054;28;20058;-59
2021/01/08 12:49:22;;;;;;;1.23;1.08;;;7.80;79.70;;;;;;5113378;28;20373;-58
2021/01/08 12:51:51;;;;;;;1.80;1.23;;;7.80;79.70;;;;;;5113947;28;20073;-54
2021/01/08 12:54:17;;;;;;;2.72;1.48;;;7.80;79.70;;;;;;5113115;28;20054;-58
2021/01/08 12:56:43;;;;;;;1.27;1.08;;;7.80;79.70;;;;;;5113763;28;20043;-58
2021/01/08 12:59:09;;;;;;;2.70;1.30;;;7.80;79.70;;;;;;5113413;28;20051;-49
2021/01/08 13:01:35;;;;;;;1.60;1.42;;;7.90;79.70;;;;;;5111895;28;20048;-60
2021/01/08 13:04:00;;;;;;;1.77;1.30;;;7.80;79.70;;;;;;5113444;28;20044;-54
2021/01/08 13:06:27;;;;;;;1.33;1.08;;;7.80;79.70;;;;;;5113711;28;20051;-59